Mabel, Minnesota
Current Conditions -  °F | °C
As of 7:35 AM on Saturday 20 Dec 2014 (Local Time) from KDEH Reporting Station
Haze Haze  
Wind Chill: 20°   Ceiling: 800
Heat Index: 27°   Visibility: 6mi
Dew Point: 27°   Wind: 6mph
Humidity: 100%   Direction: 160°SSE
Pressure: 30.19"   Gusts: NA
Location:  43.52°N, 91.77°W
Report Text: KDEH 201335Z AUTO 16005KT 6SM BR OVC008 M03/M03 A3019 RMK AO2
Loading
Personal Weather Stations






























Interactive Weather Map New forecast layout! Learn more

10-Day Weather Forecast

Advertisements
Track Severe Weather on mobile